sensor_id;sensor_type;location;lat;lon;timestamp;P1;durP1;ratioP1;P2;durP2;ratioP2
40170;SDS011;37650;52.790;18.268;2022-07-23T00:03:32;11.30;;;8.90;;
40170;SDS011;37650;52.790;18.268;2022-07-23T00:06:53;9.50;;;8.50;;
40170;SDS011;37650;52.790;18.268;2022-07-23T00:10:16;11.30;;;8.30;;
40170;SDS011;37650;52.790;18.268;2022-07-23T00:13:37;9.60;;;8.70;;
40170;SDS011;37650;52.790;18.268;2022-07-23T00:16:58;10.20;;;9.30;;
40170;SDS011;37650;52.790;18.268;2022-07-23T00:20:19;11.10;;;10.00;;
40170;SDS011;37650;52.790;18.268;2022-07-23T00:23:40;12.40;;;10.30;;
40170;SDS011;37650;52.790;18.268;2022-07-23T00:27:01;10.30;;;9.30;;
40170;SDS011;37650;52.790;18.268;2022-07-23T00:30:22;10.20;;;9.20;;
40170;SDS011;37650;52.790;18.268;2022-07-23T00:33:44;11.30;;;10.10;;
40170;SDS011;37650;52.790;18.268;2022-07-23T00:37:05;10.90;;;9.90;;
40170;SDS011;37650;52.790;18.268;2022-07-23T00:40:27;12.10;;;10.90;;
40170;SDS011;37650;52.790;18.268;2022-07-23T00:43:49;12.20;;;11.00;;
40170;SDS011;37650;52.790;18.268;2022-07-23T00:47:11;12.60;;;11.40;;
40170;SDS011;37650;52.790;18.268;2022-07-23T00:50:32;11.40;;;10.30;;
40170;SDS011;37650;52.790;18.268;2022-07-23T00:53:53;11.40;;;10.20;;
40170;SDS011;37650;52.790;18.268;2022-07-23T00:57:14;11.00;;;9.90;;
40170;SDS011;37650;52.790;18.268;2022-07-23T01:00:36;12.30;;;11.00;;
40170;SDS011;37650;52.790;18.268;2022-07-23T01:03:57;12.10;;;10.90;;
40170;SDS011;37650;52.790;18.268;2022-07-23T01:07:18;13.60;;;12.20;;
40170;SDS011;37650;52.790;18.268;2022-07-23T01:10:40;12.50;;;11.30;;
40170;SDS011;37650;52.790;18.268;2022-07-23T01:14:11;12.20;;;10.90;;
40170;SDS011;37650;52.790;18.268;2022-07-23T01:17:34;12.60;;;11.30;;
40170;SDS011;37650;52.790;18.268;2022-07-23T01:20:56;12.90;;;11.70;;
40170;SDS011;37650;52.790;18.268;2022-07-23T01:24:17;13.30;;;12.10;;
40170;SDS011;37650;52.790;18.268;2022-07-23T01:27:51;12.90;;;11.70;;
40170;SDS011;37650;52.790;18.268;2022-07-23T01:31:13;12.20;;;10.90;;
40170;SDS011;37650;52.790;18.268;2022-07-23T01:34:34;13.90;;;12.40;;
40170;SDS011;37650;52.790;18.268;2022-07-23T01:37:56;14.60;;;12.10;;
40170;SDS011;37650;52.790;18.268;2022-07-23T01:41:17;15.00;;;13.30;;
40170;SDS011;37650;52.790;18.268;2022-07-23T01:44:38;12.90;;;11.30;;
40170;SDS011;37650;52.790;18.268;2022-07-23T01:48:01;12.90;;;11.60;;
40170;SDS011;37650;52.790;18.268;2022-07-23T01:51:23;13.60;;;12.30;;
40170;SDS011;37650;52.790;18.268;2022-07-23T01:54:51;14.50;;;13.10;;
40170;SDS011;37650;52.790;18.268;2022-07-23T01:58:13;15.00;;;13.40;;
40170;SDS011;37650;52.790;18.268;2022-07-23T02:01:36;13.50;;;12.10;;
40170;SDS011;37650;52.790;18.268;2022-07-23T02:04:58;13.70;;;12.20;;
40170;SDS011;37650;52.790;18.268;2022-07-23T02:08:20;14.00;;;12.50;;
40170;SDS011;37650;52.790;18.268;2022-07-23T02:11:41;14.20;;;12.80;;
40170;SDS011;37650;52.790;18.268;2022-07-23T02:15:02;14.90;;;13.40;;
40170;SDS011;37650;52.790;18.268;2022-07-23T02:18:23;15.90;;;14.40;;
40170;SDS011;37650;52.790;18.268;2022-07-23T02:21:47;15.10;;;13.50;;
40170;SDS011;37650;52.790;18.268;2022-07-23T02:25:08;14.30;;;12.80;;
40170;SDS011;37650;52.790;18.268;2022-07-23T02:28:29;15.70;;;14.20;;
40170;SDS011;37650;52.790;18.268;2022-07-23T02:31:51;15.70;;;14.30;;
40170;SDS011;37650;52.790;18.268;2022-07-23T02:35:12;15.70;;;14.10;;
40170;SDS011;37650;52.790;18.268;2022-07-23T02:38:32;14.70;;;13.30;;
40170;SDS011;37650;52.790;18.268;2022-07-23T02:41:54;13.70;;;12.40;;
40170;SDS011;37650;52.790;18.268;2022-07-23T02:48:37;15.10;;;13.60;;
40170;SDS011;37650;52.790;18.268;2022-07-23T02:51:58;16.00;;;14.40;;
40170;SDS011;37650;52.790;18.268;2022-07-23T02:55:21;15.20;;;13.70;;
40170;SDS011;37650;52.790;18.268;2022-07-23T02:58:42;15.90;;;14.40;;
40170;SDS011;37650;52.790;18.268;2022-07-23T03:02:03;16.90;;;15.10;;
40170;SDS011;37650;52.790;18.268;2022-07-23T03:05:24;18.90;;;17.00;;
40170;SDS011;37650;52.790;18.268;2022-07-23T03:08:45;19.30;;;17.50;;
40170;SDS011;37650;52.790;18.268;2022-07-23T03:12:06;17.10;;;15.40;;
40170;SDS011;37650;52.790;18.268;2022-07-23T03:15:28;16.50;;;14.50;;
40170;SDS011;37650;52.790;18.268;2022-07-23T03:18:49;15.30;;;13.60;;
40170;SDS011;37650;52.790;18.268;2022-07-23T03:22:10;15.40;;;13.90;;
40170;SDS011;37650;52.790;18.268;2022-07-23T03:25:31;15.60;;;14.10;;
40170;SDS011;37650;52.790;18.268;2022-07-23T03:28:52;15.60;;;14.10;;
40170;SDS011;37650;52.790;18.268;2022-07-23T03:32:13;17.80;;;14.40;;
40170;SDS011;37650;52.790;18.268;2022-07-23T03:35:34;16.00;;;14.30;;
40170;SDS011;37650;52.790;18.268;2022-07-23T03:39:04;16.00;;;14.30;;
40170;SDS011;37650;52.790;18.268;2022-07-23T03:42:26;15.10;;;13.60;;
40170;SDS011;37650;52.790;18.268;2022-07-23T03:45:47;16.00;;;14.50;;
40170;SDS011;37650;52.790;18.268;2022-07-23T03:49:08;16.80;;;15.20;;
40170;SDS011;37650;52.790;18.268;2022-07-23T03:52:29;15.30;;;13.90;;
40170;SDS011;37650;52.790;18.268;2022-07-23T03:55:50;16.60;;;14.20;;
40170;SDS011;37650;52.790;18.268;2022-07-23T03:59:11;16.30;;;14.60;;
40170;SDS011;37650;52.790;18.268;2022-07-23T04:02:32;17.40;;;15.70;;
40170;SDS011;37650;52.790;18.268;2022-07-23T04:05:53;18.30;;;15.50;;
40170;SDS011;37650;52.790;18.268;2022-07-23T04:09:15;16.30;;;14.80;;
40170;SDS011;37650;52.790;18.268;2022-07-23T04:12:36;15.90;;;14.30;;
40170;SDS011;37650;52.790;18.268;2022-07-23T04:15:58;16.10;;;14.50;;
40170;SDS011;37650;52.790;18.268;2022-07-23T04:22:53;17.10;;;15.20;;
40170;SDS011;37650;52.790;18.268;2022-07-23T04:26:14;17.60;;;16.00;;
40170;SDS011;37650;52.790;18.268;2022-07-23T04:29:36;16.00;;;14.40;;
40170;SDS011;37650;52.790;18.268;2022-07-23T04:32:57;15.30;;;13.80;;
40170;SDS011;37650;52.790;18.268;2022-07-23T04:36:21;15.80;;;14.40;;
40170;SDS011;37650;52.790;18.268;2022-07-23T04:39:42;16.90;;;15.20;;
40170;SDS011;37650;52.790;18.268;2022-07-23T04:43:06;20.70;;;16.30;;
40170;SDS011;37650;52.790;18.268;2022-07-23T04:46:30;20.50;;;13.90;;
40170;SDS011;37650;52.790;18.268;2022-07-23T04:49:51;16.80;;;15.00;;
40170;SDS011;37650;52.790;18.268;2022-07-23T04:53:12;18.70;;;15.80;;
40170;SDS011;37650;52.790;18.268;2022-07-23T04:56:33;16.00;;;14.30;;
40170;SDS011;37650;52.790;18.268;2022-07-23T04:59:57;16.10;;;14.50;;
40170;SDS011;37650;52.790;18.268;2022-07-23T05:03:19;14.20;;;12.80;;
40170;SDS011;37650;52.790;18.268;2022-07-23T05:06:41;13.20;;;11.90;;
40170;SDS011;37650;52.790;18.268;2022-07-23T05:10:03;13.40;;;12.10;;
40170;SDS011;37650;52.790;18.268;2022-07-23T05:13:24;14.00;;;12.70;;
40170;SDS011;37650;52.790;18.268;2022-07-23T05:16:46;16.40;;;14.80;;
40170;SDS011;37650;52.790;18.268;2022-07-23T05:20:12;15.20;;;13.80;;
40170;SDS011;37650;52.790;18.268;2022-07-23T05:23:39;16.20;;;14.60;;
40170;SDS011;37650;52.790;18.268;2022-07-23T05:26:59;14.50;;;13.10;;
40170;SDS011;37650;52.790;18.268;2022-07-23T05:30:20;14.50;;;13.20;;
40170;SDS011;37650;52.790;18.268;2022-07-23T05:33:43;14.30;;;13.00;;
40170;SDS011;37650;52.790;18.268;2022-07-23T05:37:05;14.30;;;12.60;;
40170;SDS011;37650;52.790;18.268;2022-07-23T05:40:27;13.00;;;11.70;;
40170;SDS011;37650;52.790;18.268;2022-07-23T05:43:48;14.50;;;12.60;;
40170;SDS011;37650;52.790;18.268;2022-07-23T05:47:09;13.20;;;11.50;;
40170;SDS011;37650;52.790;18.268;2022-07-23T05:50:30;15.60;;;12.50;;
40170;SDS011;37650;52.790;18.268;2022-07-23T05:53:56;13.30;;;12.10;;
40170;SDS011;37650;52.790;18.268;2022-07-23T05:57:21;13.80;;;12.50;;
40170;SDS011;37650;52.790;18.268;2022-07-23T06:00:42;13.00;;;11.70;;
40170;SDS011;37650;52.790;18.268;2022-07-23T06:04:04;13.90;;;12.50;;
40170;SDS011;37650;52.790;18.268;2022-07-23T06:07:29;15.30;;;13.00;;
40170;SDS011;37650;52.790;18.268;2022-07-23T06:10:51;15.60;;;14.10;;
40170;SDS011;37650;52.790;18.268;2022-07-23T06:14:12;14.30;;;12.80;;
40170;SDS011;37650;52.790;18.268;2022-07-23T06:17:52;13.10;;;11.80;;
40170;SDS011;37650;52.790;18.268;2022-07-23T06:21:15;13.90;;;12.60;;
40170;SDS011;37650;52.790;18.268;2022-07-23T06:24:42;13.30;;;12.00;;
40170;SDS011;37650;52.790;18.268;2022-07-23T06:28:03;13.80;;;12.60;;
40170;SDS011;37650;52.790;18.268;2022-07-23T06:31:24;14.00;;;12.80;;
40170;SDS011;37650;52.790;18.268;2022-07-23T06:34:46;12.10;;;11.10;;
40170;SDS011;37650;52.790;18.268;2022-07-23T06:38:07;11.00;;;9.50;;
40170;SDS011;37650;52.790;18.268;2022-07-23T06:41:29;10.30;;;9.20;;
40170;SDS011;37650;52.790;18.268;2022-07-23T06:44:50;9.10;;;8.20;;
40170;SDS011;37650;52.790;18.268;2022-07-23T06:48:13;9.00;;;7.80;;
40170;SDS011;37650;52.790;18.268;2022-07-23T06:54:56;9.90;;;6.10;;
40170;SDS011;37650;52.790;18.268;2022-07-23T07:01:40;7.30;;;6.50;;
40170;SDS011;37650;52.790;18.268;2022-07-23T07:05:01;6.20;;;5.40;;
40170;SDS011;37650;52.790;18.268;2022-07-23T07:08:23;8.70;;;6.50;;
40170;SDS011;37650;52.790;18.268;2022-07-23T07:11:44;7.70;;;5.80;;
40170;SDS011;37650;52.790;18.268;2022-07-23T07:15:05;9.50;;;6.60;;
40170;SDS011;37650;52.790;18.268;2022-07-23T07:18:26;6.70;;;6.00;;
40170;SDS011;37650;52.790;18.268;2022-07-23T07:21:47;9.10;;;5.90;;
40170;SDS011;37650;52.790;18.268;2022-07-23T07:25:08;7.40;;;5.50;;
40170;SDS011;37650;52.790;18.268;2022-07-23T07:28:30;5.00;;;4.50;;
40170;SDS011;37650;52.790;18.268;2022-07-23T07:31:52;7.60;;;5.30;;
40170;SDS011;37650;52.790;18.268;2022-07-23T07:35:13;9.90;;;5.40;;
40170;SDS011;37650;52.790;18.268;2022-07-23T07:38:33;6.00;;;4.50;;
40170;SDS011;37650;52.790;18.268;2022-07-23T07:45:16;7.10;;;4.30;;
40170;SDS011;37650;52.790;18.268;2022-07-23T07:48:37;5.00;;;4.20;;
40170;SDS011;37650;52.790;18.268;2022-07-23T07:51:58;4.90;;;3.70;;
40170;SDS011;37650;52.790;18.268;2022-07-23T07:55:20;5.60;;;3.70;;
40170;SDS011;37650;52.790;18.268;2022-07-23T07:58:41;5.70;;;4.10;;
40170;SDS011;37650;52.790;18.268;2022-07-23T08:02:03;7.00;;;4.10;;
40170;SDS011;37650;52.790;18.268;2022-07-23T08:05:27;5.80;;;4.10;;
40170;SDS011;37650;52.790;18.268;2022-07-23T08:08:50;7.40;;;4.00;;
40170;SDS011;37650;52.790;18.268;2022-07-23T08:12:12;5.00;;;3.50;;
40170;SDS011;37650;52.790;18.268;2022-07-23T08:15:33;5.80;;;4.70;;
40170;SDS011;37650;52.790;18.268;2022-07-23T08:19:00;5.60;;;4.10;;
40170;SDS011;37650;52.790;18.268;2022-07-23T08:22:21;5.60;;;4.10;;
40170;SDS011;37650;52.790;18.268;2022-07-23T08:25:43;5.40;;;4.00;;
40170;SDS011;37650;52.790;18.268;2022-07-23T08:29:07;6.60;;;4.20;;
40170;SDS011;37650;52.790;18.268;2022-07-23T08:32:30;8.90;;;5.30;;
40170;SDS011;37650;52.790;18.268;2022-07-23T08:35:54;7.20;;;4.30;;
40170;SDS011;37650;52.790;18.268;2022-07-23T08:39:14;7.10;;;4.20;;
40170;SDS011;37650;52.790;18.268;2022-07-23T08:42:41;6.20;;;4.70;;
40170;SDS011;37650;52.790;18.268;2022-07-23T08:46:03;5.90;;;4.20;;
40170;SDS011;37650;52.790;18.268;2022-07-23T08:49:25;4.60;;;4.10;;
40170;SDS011;37650;52.790;18.268;2022-07-23T08:52:59;4.60;;;3.70;;
40170;SDS011;37650;52.790;18.268;2022-07-23T08:56:23;7.30;;;4.70;;
40170;SDS011;37650;52.790;18.268;2022-07-23T08:59:50;6.20;;;3.70;;
40170;SDS011;37650;52.790;18.268;2022-07-23T09:03:14;8.60;;;4.20;;
40170;SDS011;37650;52.790;18.268;2022-07-23T09:06:43;5.60;;;4.20;;
40170;SDS011;37650;52.790;18.268;2022-07-23T09:10:10;5.80;;;4.20;;
40170;SDS011;37650;52.790;18.268;2022-07-23T09:13:51;5.60;;;4.00;;
40170;SDS011;37650;52.790;18.268;2022-07-23T09:17:15;6.10;;;4.30;;
40170;SDS011;37650;52.790;18.268;2022-07-23T09:20:38;7.10;;;4.20;;
40170;SDS011;37650;52.790;18.268;2022-07-23T09:27:27;5.50;;;3.70;;
40170;SDS011;37650;52.790;18.268;2022-07-23T09:31:15;5.90;;;4.10;;
40170;SDS011;37650;52.790;18.268;2022-07-23T09:34:40;6.60;;;4.90;;
40170;SDS011;37650;52.790;18.268;2022-07-23T09:38:12;7.20;;;4.20;;
40170;SDS011;37650;52.790;18.268;2022-07-23T09:41:35;7.20;;;4.30;;
40170;SDS011;37650;52.790;18.268;2022-07-23T09:44:58;5.00;;;4.30;;
40170;SDS011;37650;52.790;18.268;2022-07-23T09:48:21;5.70;;;4.50;;
40170;SDS011;37650;52.790;18.268;2022-07-23T09:51:49;6.10;;;4.20;;
40170;SDS011;37650;52.790;18.268;2022-07-23T09:55:18;5.60;;;3.70;;
40170;SDS011;37650;52.790;18.268;2022-07-23T09:58:40;6.70;;;4.10;;
40170;SDS011;37650;52.790;18.268;2022-07-23T10:02:08;7.10;;;4.10;;
40170;SDS011;37650;52.790;18.268;2022-07-23T10:06:01;6.80;;;4.50;;
40170;SDS011;37650;52.790;18.268;2022-07-23T10:09:23;4.90;;;4.10;;
40170;SDS011;37650;52.790;18.268;2022-07-23T10:13:15;7.00;;;4.40;;
40170;SDS011;37650;52.790;18.268;2022-07-23T10:16:57;6.80;;;4.30;;
40170;SDS011;37650;52.790;18.268;2022-07-23T10:20:20;5.50;;;4.50;;
40170;SDS011;37650;52.790;18.268;2022-07-23T10:27:58;8.10;;;5.20;;
40170;SDS011;37650;52.790;18.268;2022-07-23T10:39:28;8.70;;;7.40;;
40170;SDS011;37650;52.790;18.268;2022-07-23T10:42:52;10.00;;;6.40;;
40170;SDS011;37650;52.790;18.268;2022-07-23T10:46:22;11.70;;;7.00;;
40170;SDS011;37650;52.790;18.268;2022-07-23T10:53:59;9.60;;;8.60;;
40170;SDS011;37650;52.790;18.268;2022-07-23T10:57:25;11.20;;;7.80;;
40170;SDS011;37650;52.790;18.268;2022-07-23T11:00:48;11.10;;;8.70;;
40170;SDS011;37650;52.790;18.268;2022-07-23T11:04:10;11.30;;;7.90;;
40170;SDS011;37650;52.790;18.268;2022-07-23T11:07:32;9.90;;;8.50;;
40170;SDS011;37650;52.790;18.268;2022-07-23T11:11:06;8.30;;;7.40;;
40170;SDS011;37650;52.790;18.268;2022-07-23T11:22:08;10.80;;;8.70;;
40170;SDS011;37650;52.790;18.268;2022-07-23T11:25:31;10.20;;;9.30;;
40170;SDS011;37650;52.790;18.268;2022-07-23T11:28:55;12.30;;;10.00;;
40170;SDS011;37650;52.790;18.268;2022-07-23T11:32:23;9.80;;;8.90;;
40170;SDS011;37650;52.790;18.268;2022-07-23T11:36:00;8.70;;;7.80;;
40170;SDS011;37650;52.790;18.268;2022-07-23T11:43:12;10.90;;;9.80;;
40170;SDS011;37650;52.790;18.268;2022-07-23T11:46:34;11.20;;;10.20;;
40170;SDS011;37650;52.790;18.268;2022-07-23T11:49:57;12.50;;;11.10;;
40170;SDS011;37650;52.790;18.268;2022-07-23T11:53:27;10.20;;;9.20;;
40170;SDS011;37650;52.790;18.268;2022-07-23T11:56:56;10.40;;;9.30;;
40170;SDS011;37650;52.790;18.268;2022-07-23T12:00:20;11.40;;;10.40;;
40170;SDS011;37650;52.790;18.268;2022-07-23T12:03:52;11.70;;;10.60;;
40170;SDS011;37650;52.790;18.268;2022-07-23T12:10:57;11.80;;;10.70;;
40170;SDS011;37650;52.790;18.268;2022-07-23T12:14:19;10.50;;;9.60;;
40170;SDS011;37650;52.790;18.268;2022-07-23T12:17:41;11.70;;;10.60;;
40170;SDS011;37650;52.790;18.268;2022-07-23T12:21:04;12.50;;;11.40;;
40170;SDS011;37650;52.790;18.268;2022-07-23T12:24:27;11.90;;;10.70;;
40170;SDS011;37650;52.790;18.268;2022-07-23T12:28:07;10.80;;;9.70;;
40170;SDS011;37650;52.790;18.268;2022-07-23T12:31:30;10.30;;;9.30;;
40170;SDS011;37650;52.790;18.268;2022-07-23T12:35:13;8.90;;;7.60;;
40170;SDS011;37650;52.790;18.268;2022-07-23T12:38:40;9.00;;;6.60;;
40170;SDS011;37650;52.790;18.268;2022-07-23T12:42:10;9.00;;;7.20;;
40170;SDS011;37650;52.790;18.268;2022-07-23T12:45:46;9.30;;;6.80;;
40170;SDS011;37650;52.790;18.268;2022-07-23T12:49:24;7.60;;;6.70;;
40170;SDS011;37650;52.790;18.268;2022-07-23T12:52:47;8.30;;;7.50;;
40170;SDS011;37650;52.790;18.268;2022-07-23T12:56:09;9.40;;;8.50;;
40170;SDS011;37650;52.790;18.268;2022-07-23T12:59:33;9.10;;;8.30;;
40170;SDS011;37650;52.790;18.268;2022-07-23T13:02:54;9.40;;;8.40;;
40170;SDS011;37650;52.790;18.268;2022-07-23T13:06:24;9.90;;;8.60;;
40170;SDS011;37650;52.790;18.268;2022-07-23T13:09:46;9.70;;;8.80;;
40170;SDS011;37650;52.790;18.268;2022-07-23T13:13:10;10.30;;;9.30;;
40170;SDS011;37650;52.790;18.268;2022-07-23T13:16:32;11.10;;;9.50;;
40170;SDS011;37650;52.790;18.268;2022-07-23T13:19:54;10.10;;;9.20;;
40170;SDS011;37650;52.790;18.268;2022-07-23T13:23:15;10.30;;;9.30;;
40170;SDS011;37650;52.790;18.268;2022-07-23T13:26:37;10.60;;;9.60;;
40170;SDS011;37650;52.790;18.268;2022-07-23T13:30:02;11.30;;;10.20;;
40170;SDS011;37650;52.790;18.268;2022-07-23T13:33:23;12.10;;;10.90;;
40170;SDS011;37650;52.790;18.268;2022-07-23T13:36:45;10.90;;;9.90;;
40170;SDS011;37650;52.790;18.268;2022-07-23T13:46:50;10.60;;;9.60;;
40170;SDS011;37650;52.790;18.268;2022-07-23T13:50:11;11.20;;;10.10;;
40170;SDS011;37650;52.790;18.268;2022-07-23T13:53:36;11.20;;;9.90;;
40170;SDS011;37650;52.790;18.268;2022-07-23T13:56:58;11.10;;;10.00;;
40170;SDS011;37650;52.790;18.268;2022-07-23T14:00:19;10.30;;;9.40;;
40170;SDS011;37650;52.790;18.268;2022-07-23T14:03:40;10.40;;;9.40;;
40170;SDS011;37650;52.790;18.268;2022-07-23T14:07:01;10.80;;;9.70;;
40170;SDS011;37650;52.790;18.268;2022-07-23T14:13:44;10.60;;;9.50;;
40170;SDS011;37650;52.790;18.268;2022-07-23T14:17:05;11.10;;;10.10;;
40170;SDS011;37650;52.790;18.268;2022-07-23T14:20:28;13.10;;;10.60;;
40170;SDS011;37650;52.790;18.268;2022-07-23T14:23:49;12.20;;;11.00;;
40170;SDS011;37650;52.790;18.268;2022-07-23T14:27:09;11.70;;;10.40;;
40170;SDS011;37650;52.790;18.268;2022-07-23T14:30:31;12.40;;;10.40;;
40170;SDS011;37650;52.790;18.268;2022-07-23T14:33:52;12.60;;;11.00;;
40170;SDS011;37650;52.790;18.268;2022-07-23T14:37:16;13.70;;;12.40;;
40170;SDS011;37650;52.790;18.268;2022-07-23T14:40:37;15.30;;;13.90;;
40170;SDS011;37650;52.790;18.268;2022-07-23T14:43:58;13.50;;;12.10;;
40170;SDS011;37650;52.790;18.268;2022-07-23T14:47:19;13.20;;;12.00;;
40170;SDS011;37650;52.790;18.268;2022-07-23T14:50:41;11.50;;;10.40;;
40170;SDS011;37650;52.790;18.268;2022-07-23T14:54:03;13.70;;;12.30;;
40170;SDS011;37650;52.790;18.268;2022-07-23T14:57:26;12.80;;;11.40;;
40170;SDS011;37650;52.790;18.268;2022-07-23T15:00:47;13.40;;;12.10;;
40170;SDS011;37650;52.790;18.268;2022-07-23T15:04:19;12.50;;;11.30;;
40170;SDS011;37650;52.790;18.268;2022-07-23T15:07:40;12.50;;;11.20;;
40170;SDS011;37650;52.790;18.268;2022-07-23T15:11:01;12.30;;;11.20;;
40170;SDS011;37650;52.790;18.268;2022-07-23T15:14:22;9.10;;;8.30;;
40170;SDS011;37650;52.790;18.268;2022-07-23T15:17:43;8.50;;;7.60;;
40170;SDS011;37650;52.790;18.268;2022-07-23T15:21:04;9.60;;;8.60;;
40170;SDS011;37650;52.790;18.268;2022-07-23T15:24:26;11.00;;;10.00;;
40170;SDS011;37650;52.790;18.268;2022-07-23T15:27:49;11.80;;;10.60;;
40170;SDS011;37650;52.790;18.268;2022-07-23T15:31:11;11.80;;;10.70;;
40170;SDS011;37650;52.790;18.268;2022-07-23T15:34:32;12.00;;;10.90;;
40170;SDS011;37650;52.790;18.268;2022-07-23T15:37:53;11.00;;;9.70;;
40170;SDS011;37650;52.790;18.268;2022-07-23T15:41:15;12.30;;;10.70;;
40170;SDS011;37650;52.790;18.268;2022-07-23T15:44:36;11.50;;;10.40;;
40170;SDS011;37650;52.790;18.268;2022-07-23T15:47:57;13.00;;;11.80;;
40170;SDS011;37650;52.790;18.268;2022-07-23T15:51:26;12.60;;;11.40;;
40170;SDS011;37650;52.790;18.268;2022-07-23T15:54:48;11.90;;;9.80;;
40170;SDS011;37650;52.790;18.268;2022-07-23T15:58:10;10.40;;;9.40;;
40170;SDS011;37650;52.790;18.268;2022-07-23T16:01:31;12.60;;;10.10;;
40170;SDS011;37650;52.790;18.268;2022-07-23T16:04:52;15.00;;;11.40;;
40170;SDS011;37650;52.790;18.268;2022-07-23T16:08:14;11.00;;;9.80;;
40170;SDS011;37650;52.790;18.268;2022-07-23T16:11:35;20.10;;;10.30;;
40170;SDS011;37650;52.790;18.268;2022-07-23T16:14:56;11.70;;;10.30;;
40170;SDS011;37650;52.790;18.268;2022-07-23T16:18:17;13.60;;;10.60;;
40170;SDS011;37650;52.790;18.268;2022-07-23T16:21:38;10.70;;;9.70;;
40170;SDS011;37650;52.790;18.268;2022-07-23T16:25:00;10.30;;;9.40;;
40170;SDS011;37650;52.790;18.268;2022-07-23T16:28:21;10.00;;;8.90;;
40170;SDS011;37650;52.790;18.268;2022-07-23T16:31:42;9.80;;;8.90;;
40170;SDS011;37650;52.790;18.268;2022-07-23T16:35:04;10.40;;;9.30;;
40170;SDS011;37650;52.790;18.268;2022-07-23T16:38:25;8.30;;;7.60;;
40170;SDS011;37650;52.790;18.268;2022-07-23T16:41:46;8.70;;;7.90;;
40170;SDS011;37650;52.790;18.268;2022-07-23T16:45:07;9.70;;;8.80;;
40170;SDS011;37650;52.790;18.268;2022-07-23T16:48:30;8.50;;;7.60;;
40170;SDS011;37650;52.790;18.268;2022-07-23T16:51:52;8.90;;;8.00;;
40170;SDS011;37650;52.790;18.268;2022-07-23T16:55:13;8.40;;;7.60;;
40170;SDS011;37650;52.790;18.268;2022-07-23T16:58:35;8.40;;;7.60;;
40170;SDS011;37650;52.790;18.268;2022-07-23T17:01:56;8.10;;;7.40;;
40170;SDS011;37650;52.790;18.268;2022-07-23T17:05:24;9.10;;;8.20;;
40170;SDS011;37650;52.790;18.268;2022-07-23T17:08:46;10.40;;;9.40;;
40170;SDS011;37650;52.790;18.268;2022-07-23T17:15:29;9.80;;;8.90;;
40170;SDS011;37650;52.790;18.268;2022-07-23T17:18:50;9.50;;;8.60;;
40170;SDS011;37650;52.790;18.268;2022-07-23T17:22:11;10.60;;;8.80;;
40170;SDS011;37650;52.790;18.268;2022-07-23T17:25:33;9.30;;;7.90;;
40170;SDS011;37650;52.790;18.268;2022-07-23T17:28:54;9.20;;;8.30;;
40170;SDS011;37650;52.790;18.268;2022-07-23T17:32:16;10.20;;;9.20;;
40170;SDS011;37650;52.790;18.268;2022-07-23T17:35:40;11.80;;;10.70;;
40170;SDS011;37650;52.790;18.268;2022-07-23T17:42:28;11.70;;;10.60;;
40170;SDS011;37650;52.790;18.268;2022-07-23T17:45:52;11.70;;;9.10;;
40170;SDS011;37650;52.790;18.268;2022-07-23T17:49:14;8.60;;;6.80;;
40170;SDS011;37650;52.790;18.268;2022-07-23T17:56:15;8.10;;;7.10;;
40170;SDS011;37650;52.790;18.268;2022-07-23T17:59:40;14.80;;;7.40;;
40170;SDS011;37650;52.790;18.268;2022-07-23T18:03:01;11.70;;;7.90;;
40170;SDS011;37650;52.790;18.268;2022-07-23T18:06:24;8.70;;;7.50;;
40170;SDS011;37650;52.790;18.268;2022-07-23T18:09:45;9.80;;;7.20;;
40170;SDS011;37650;52.790;18.268;2022-07-23T18:13:09;9.70;;;7.70;;
40170;SDS011;37650;52.790;18.268;2022-07-23T18:16:30;9.20;;;7.40;;
40170;SDS011;37650;52.790;18.268;2022-07-23T18:19:50;7.70;;;6.40;;
40170;SDS011;37650;52.790;18.268;2022-07-23T18:23:12;7.70;;;6.60;;
40170;SDS011;37650;52.790;18.268;2022-07-23T18:26:33;8.90;;;6.80;;
40170;SDS011;37650;52.790;18.268;2022-07-23T18:29:55;10.50;;;7.20;;
40170;SDS011;37650;52.790;18.268;2022-07-23T18:33:19;23.60;;;21.00;;
40170;SDS011;37650;52.790;18.268;2022-07-23T18:36:42;18.90;;;16.60;;
40170;SDS011;37650;52.790;18.268;2022-07-23T18:40:05;14.40;;;12.40;;
40170;SDS011;37650;52.790;18.268;2022-07-23T18:43:28;13.30;;;11.30;;
40170;SDS011;37650;52.790;18.268;2022-07-23T18:46:49;14.30;;;12.90;;
40170;SDS011;37650;52.790;18.268;2022-07-23T18:50:11;14.00;;;10.30;;
40170;SDS011;37650;52.790;18.268;2022-07-23T18:53:33;9.60;;;7.20;;
40170;SDS011;37650;52.790;18.268;2022-07-23T18:56:53;42.30;;;37.10;;
40170;SDS011;37650;52.790;18.268;2022-07-23T19:00:15;20.30;;;17.20;;
40170;SDS011;37650;52.790;18.268;2022-07-23T19:03:40;10.60;;;9.50;;
40170;SDS011;37650;52.790;18.268;2022-07-23T19:07:02;9.60;;;7.50;;
40170;SDS011;37650;52.790;18.268;2022-07-23T19:10:23;14.50;;;10.70;;
40170;SDS011;37650;52.790;18.268;2022-07-23T19:13:44;20.80;;;18.10;;
40170;SDS011;37650;52.790;18.268;2022-07-23T19:17:05;12.10;;;10.10;;
40170;SDS011;37650;52.790;18.268;2022-07-23T19:20:30;13.60;;;11.40;;
40170;SDS011;37650;52.790;18.268;2022-07-23T19:23:52;19.20;;;17.10;;
40170;SDS011;37650;52.790;18.268;2022-07-23T19:27:16;13.30;;;9.30;;
40170;SDS011;37650;52.790;18.268;2022-07-23T19:30:45;8.80;;;7.90;;
40170;SDS011;37650;52.790;18.268;2022-07-23T19:34:15;9.80;;;8.00;;
40170;SDS011;37650;52.790;18.268;2022-07-23T19:37:59;10.30;;;8.50;;
40170;SDS011;37650;52.790;18.268;2022-07-23T19:41:20;13.80;;;9.00;;
40170;SDS011;37650;52.790;18.268;2022-07-23T19:44:42;13.10;;;8.40;;
40170;SDS011;37650;52.790;18.268;2022-07-23T19:48:03;9.90;;;8.30;;
40170;SDS011;37650;52.790;18.268;2022-07-23T19:51:26;11.90;;;8.30;;
40170;SDS011;37650;52.790;18.268;2022-07-23T19:54:50;12.70;;;8.10;;
40170;SDS011;37650;52.790;18.268;2022-07-23T19:58:11;13.90;;;9.20;;
40170;SDS011;37650;52.790;18.268;2022-07-23T20:01:33;11.30;;;7.80;;
40170;SDS011;37650;52.790;18.268;2022-07-23T20:04:55;15.10;;;6.70;;
40170;SDS011;37650;52.790;18.268;2022-07-23T20:08:16;12.90;;;7.80;;
40170;SDS011;37650;52.790;18.268;2022-07-23T20:11:38;10.00;;;7.20;;
40170;SDS011;37650;52.790;18.268;2022-07-23T20:14:59;9.60;;;6.70;;
40170;SDS011;37650;52.790;18.268;2022-07-23T20:18:21;10.60;;;6.40;;
40170;SDS011;37650;52.790;18.268;2022-07-23T20:21:43;11.30;;;6.00;;
40170;SDS011;37650;52.790;18.268;2022-07-23T20:25:11;10.50;;;7.10;;
40170;SDS011;37650;52.790;18.268;2022-07-23T20:28:34;10.00;;;7.10;;
40170;SDS011;37650;52.790;18.268;2022-07-23T20:31:58;9.10;;;5.80;;
40170;SDS011;37650;52.790;18.268;2022-07-23T20:35:21;7.60;;;5.20;;
40170;SDS011;37650;52.790;18.268;2022-07-23T20:38:46;10.30;;;6.20;;
40170;SDS011;37650;52.790;18.268;2022-07-23T20:42:08;7.50;;;5.90;;
40170;SDS011;37650;52.790;18.268;2022-07-23T20:45:31;10.10;;;6.10;;
40170;SDS011;37650;52.790;18.268;2022-07-23T20:48:52;11.60;;;5.70;;
40170;SDS011;37650;52.790;18.268;2022-07-23T20:52:13;9.00;;;5.60;;
40170;SDS011;37650;52.790;18.268;2022-07-23T20:55:35;9.60;;;5.80;;
40170;SDS011;37650;52.790;18.268;2022-07-23T20:58:56;10.10;;;5.80;;
40170;SDS011;37650;52.790;18.268;2022-07-23T21:02:17;10.30;;;5.40;;